createdAt,value
2023-02-22T00:02:10.432Z,5.07
2023-02-22T00:04:39.454Z,4.40
2023-02-22T00:07:07.147Z,5.47
2023-02-22T00:09:34.080Z,4.95
2023-02-22T00:12:01.216Z,5.15
2023-02-22T00:14:28.506Z,5.30
2023-02-22T00:16:59.508Z,4.55
2023-02-22T00:19:27.993Z,4.72
2023-02-22T00:21:55.053Z,4.78
2023-02-22T00:24:24.708Z,5.07
2023-02-22T00:26:57.089Z,4.75
2023-02-22T00:29:25.308Z,5.05
2023-02-22T00:31:52.323Z,4.38
2023-02-22T00:34:19.156Z,5.25
2023-02-22T00:36:50.522Z,5.15
2023-02-22T00:39:18.085Z,5.38
2023-02-22T00:41:45.167Z,5.35
2023-02-22T00:44:12.147Z,5.45
2023-02-22T00:46:39.644Z,5.45
2023-02-22T00:49:07.093Z,5.78
2023-02-22T00:51:34.061Z,5.68
2023-02-22T00:54:01.413Z,5.35
2023-02-22T00:56:28.603Z,5.53
2023-02-22T00:58:55.495Z,6.30
2023-02-22T01:01:23.920Z,5.63
2023-02-22T01:03:50.787Z,5.60
2023-02-22T01:06:17.592Z,5.63
2023-02-22T01:08:46.542Z,5.20
2023-02-22T01:11:16.192Z,5.70
2023-02-22T01:16:12.227Z,4.72
2023-02-22T01:18:39.089Z,4.85
2023-02-22T01:21:06.790Z,4.32
2023-02-22T01:23:35.395Z,4.95
2023-02-22T01:26:05.543Z,5.00
2023-02-22T01:28:33.497Z,4.85
2023-02-22T01:31:02.921Z,5.20
2023-02-22T01:33:30.125Z,4.65
2023-02-22T01:35:57.351Z,4.68
2023-02-22T01:38:24.196Z,4.75
2023-02-22T01:40:51.774Z,5.35
2023-02-22T01:43:31.730Z,5.30
2023-02-22T01:48:44.427Z,4.65
2023-02-22T01:51:32.415Z,4.55
2023-02-22T01:54:36.900Z,4.80
2023-02-22T01:57:24.692Z,5.00
2023-02-22T01:59:57.594Z,5.00
2023-02-22T02:02:25.949Z,5.00
2023-02-22T02:04:56.334Z,5.55
2023-02-22T02:07:24.717Z,5.35
2023-02-22T02:12:29.776Z,4.22
2023-02-22T02:15:31.842Z,4.15
2023-02-22T02:18:04.119Z,4.38
2023-02-22T02:20:48.945Z,4.53
2023-02-22T02:24:13.511Z,4.35
2023-02-22T02:26:55.559Z,4.03
2023-02-22T02:30:11.514Z,3.88
2023-02-22T02:32:48.444Z,4.07
2023-02-22T02:35:30.532Z,4.30
2023-02-22T02:38:23.707Z,4.40
2023-02-22T02:41:21.619Z,4.38
2023-02-22T02:44:12.784Z,3.92
2023-02-22T02:46:59.822Z,4.05
2023-02-22T02:49:49.978Z,3.72
2023-02-22T02:52:19.236Z,4.10
2023-02-22T02:54:49.121Z,4.32
2023-02-22T02:57:15.991Z,4.40
2023-02-22T02:59:42.923Z,4.43
2023-02-22T03:02:45.869Z,4.20
2023-02-22T03:05:43.751Z,4.00
2023-02-22T03:08:18.035Z,3.97
2023-02-22T03:11:15.812Z,4.00
2023-02-22T03:14:07.036Z,3.70
2023-02-22T03:17:23.554Z,3.60
2023-02-22T03:20:04.617Z,4.10
2023-02-22T03:22:54.377Z,3.78
2023-02-22T03:25:29.952Z,3.78
2023-02-22T03:28:04.699Z,4.00
2023-02-22T03:30:47.005Z,3.97
2023-02-22T03:33:20.873Z,4.25
2023-02-22T03:36:01.054Z,4.38
2023-02-22T03:38:32.607Z,4.07
2023-02-22T03:41:02.447Z,4.20
2023-02-22T03:43:48.438Z,3.80
2023-02-22T03:46:19.265Z,3.67
2023-02-22T03:48:57.184Z,4.03
2023-02-22T03:51:24.823Z,4.13
2023-02-22T03:53:57.534Z,4.38
2023-02-22T03:56:36.322Z,3.97
2023-02-22T03:59:07.596Z,3.72
2023-02-22T04:01:35.699Z,3.97
2023-02-22T04:04:03.685Z,4.15
2023-02-22T04:06:31.190Z,4.22
2023-02-22T04:08:59.615Z,3.53
2023-02-22T04:11:27.149Z,4.00
2023-02-22T04:13:54.789Z,4.03
2023-02-22T04:16:21.835Z,4.00
2023-02-22T04:18:50.192Z,3.95
2023-02-22T04:21:19.112Z,4.22
2023-02-22T04:23:48.817Z,3.85
2023-02-22T04:26:15.739Z,3.88
2023-02-22T04:28:45.663Z,4.18
2023-02-22T04:31:18.821Z,4.32
2023-02-22T04:33:46.167Z,3.65
2023-02-22T04:36:16.406Z,4.15
2023-02-22T04:38:44.833Z,3.92
2023-02-22T04:41:12.384Z,3.67
2023-02-22T04:43:40.018Z,3.75
2023-02-22T04:46:19.806Z,3.90
2023-02-22T04:48:46.622Z,4.13
2023-02-22T04:51:16.110Z,3.72
2023-02-22T04:53:56.200Z,4.32
2023-02-22T04:56:23.824Z,4.38
2023-02-22T04:58:50.638Z,4.13
2023-02-22T05:01:17.744Z,3.85
2023-02-22T05:03:46.729Z,3.90
2023-02-22T05:06:13.542Z,3.60
2023-02-22T05:08:40.406Z,3.90
2023-02-22T05:11:07.247Z,4.00
2023-02-22T05:13:34.092Z,3.90
2023-02-22T05:16:00.978Z,4.00
2023-02-22T05:18:27.889Z,3.92
2023-02-22T05:20:54.678Z,3.40
2023-02-22T05:23:21.501Z,3.85
2023-02-22T05:25:48.315Z,3.53
2023-02-22T05:28:15.912Z,3.95
2023-02-22T05:30:43.026Z,3.80
2023-02-22T05:33:10.515Z,3.63
2023-02-22T05:35:37.342Z,4.18
2023-02-22T05:38:05.179Z,4.22
2023-02-22T05:40:32.678Z,3.55
2023-02-22T05:43:00.697Z,4.18
2023-02-22T05:45:28.841Z,3.75
2023-02-22T05:47:56.471Z,3.75
2023-02-22T05:50:24.498Z,4.32
2023-02-22T05:52:52.393Z,3.75
2023-02-22T05:55:23.490Z,4.03
2023-02-22T05:57:51.948Z,3.53
2023-02-22T06:00:25.427Z,3.60
2023-02-22T06:02:59.186Z,3.58
2023-02-22T06:05:27.153Z,3.95
2023-02-22T06:07:55.103Z,3.55
2023-02-22T06:10:22.600Z,3.72
2023-02-22T06:12:50.432Z,3.80
2023-02-22T06:15:19.284Z,3.60
2023-02-22T06:17:46.820Z,5.60
2023-02-22T06:20:16.827Z,6.20
2023-02-22T06:22:44.667Z,4.55
2023-02-22T06:25:16.259Z,6.93
2023-02-22T06:27:43.295Z,4.82
2023-02-22T06:30:13.681Z,4.75
2023-02-22T06:32:40.571Z,4.03
2023-02-22T06:35:07.801Z,4.05
2023-02-22T06:37:34.885Z,3.78
2023-02-22T06:40:05.579Z,3.80
2023-02-22T06:42:33.035Z,4.10
2023-02-22T06:44:59.847Z,4.85
2023-02-22T06:47:26.767Z,3.88
2023-02-22T06:49:58.043Z,4.63
2023-02-22T06:52:25.305Z,3.88
2023-02-22T06:54:52.574Z,3.80
2023-02-22T06:57:19.398Z,3.78
2023-02-22T06:59:46.403Z,3.97
2023-02-22T07:02:14.173Z,3.60
2023-02-22T07:04:43.455Z,4.18
2023-02-22T07:07:10.743Z,3.88
2023-02-22T07:09:37.605Z,3.70
2023-02-22T07:12:04.593Z,4.00
2023-02-22T07:14:31.409Z,3.83
2023-02-22T07:16:58.195Z,4.15
2023-02-22T07:19:25.085Z,3.67
2023-02-22T07:21:58.945Z,4.50
2023-02-22T07:24:28.384Z,3.80
2023-02-22T07:26:55.648Z,3.58
2023-02-22T07:29:22.603Z,3.88
2023-02-22T07:31:49.745Z,3.80
2023-02-22T07:34:16.575Z,3.90
2023-02-22T07:36:43.561Z,4.53
2023-02-22T07:39:11.042Z,4.57
2023-02-22T07:41:38.004Z,4.68
2023-02-22T07:44:14.461Z,4.43
2023-02-22T07:46:41.283Z,4.20
2023-02-22T07:49:08.066Z,4.10
2023-02-22T07:51:34.888Z,4.03
2023-02-22T07:54:01.727Z,3.67
2023-02-22T07:56:28.542Z,4.38
2023-02-22T07:58:55.415Z,6.38
2023-02-22T08:01:22.203Z,5.75
2023-02-22T08:03:49.017Z,4.05
2023-02-22T08:06:16.166Z,4.18
2023-02-22T08:08:43.057Z,4.72
2023-02-22T08:11:10.048Z,4.47
2023-02-22T08:13:38.780Z,4.65
2023-02-22T08:16:05.916Z,5.40
2023-02-22T08:18:32.722Z,4.95
2023-02-22T08:20:59.582Z,4.15
2023-02-22T08:23:26.988Z,5.13
2023-02-22T08:25:54.192Z,5.10
2023-02-22T08:28:24.282Z,5.15
2023-02-22T08:30:52.853Z,4.63
2023-02-22T08:33:20.374Z,4.90
2023-02-22T08:35:49.540Z,8.10
2023-02-22T08:38:29.828Z,5.53
2023-02-22T08:40:57.242Z,4.57
2023-02-22T08:43:24.496Z,4.50
2023-02-22T08:45:52.151Z,3.95
2023-02-22T08:48:20.129Z,4.18
2023-02-22T08:50:47.181Z,4.43
2023-02-22T08:53:16.308Z,4.38
2023-02-22T08:55:43.781Z,4.05
2023-02-22T08:58:12.023Z,4.47
2023-02-22T09:00:40.350Z,3.67
2023-02-22T09:03:11.845Z,4.40
2023-02-22T09:05:38.703Z,3.97
2023-02-22T09:08:06.065Z,3.85
2023-02-22T09:10:34.469Z,3.95
2023-02-22T09:13:02.201Z,4.45
2023-02-22T09:15:30.156Z,3.97
2023-02-22T09:17:57.349Z,3.60
2023-02-22T09:20:28.308Z,3.70
2023-02-22T09:22:56.118Z,3.83
2023-02-22T09:25:23.471Z,3.65
2023-02-22T09:27:52.760Z,3.53
2023-02-22T09:30:33.151Z,4.05
2023-02-22T09:33:07.086Z,3.97
2023-02-22T09:35:35.908Z,3.92
2023-02-22T09:38:08.404Z,3.63
2023-02-22T09:40:44.580Z,3.58
2023-02-22T09:43:37.764Z,4.20
2023-02-22T09:46:28.216Z,3.53
2023-02-22T09:49:52.860Z,3.20
2023-02-22T09:52:32.540Z,3.40
2023-02-22T09:55:28.754Z,3.60
2023-02-22T09:57:58.491Z,3.53
2023-02-22T10:00:33.733Z,3.47
2023-02-22T10:03:24.722Z,3.55
2023-02-22T10:06:11.049Z,3.20
2023-02-22T10:08:39.153Z,3.22
2023-02-22T10:11:40.356Z,3.70
2023-02-22T10:14:33.298Z,3.55
2023-02-22T10:17:35.435Z,3.60
2023-02-22T10:20:14.564Z,3.80
2023-02-22T10:23:00.717Z,4.28
2023-02-22T10:25:34.841Z,4.68
2023-02-22T10:28:18.736Z,5.05
2023-02-22T10:31:04.378Z,6.07
2023-02-22T10:33:47.527Z,5.05
2023-02-22T10:36:21.290Z,6.00
2023-02-22T10:39:13.358Z,5.20
2023-02-22T10:41:49.650Z,4.97
2023-02-22T10:44:16.918Z,5.28
2023-02-22T10:46:45.783Z,5.07
2023-02-22T10:49:20.329Z,4.70
2023-02-22T10:52:01.289Z,4.35
2023-02-22T10:54:41.741Z,4.72
2023-02-22T10:57:12.125Z,4.70
2023-02-22T10:59:41.902Z,4.72
2023-02-22T11:02:30.882Z,4.55
2023-02-22T11:05:00.416Z,4.35
2023-02-22T11:07:31.638Z,4.28
2023-02-22T11:10:04.841Z,4.28
2023-02-22T11:12:43.561Z,5.15
2023-02-22T11:15:29.639Z,4.60
2023-02-22T11:17:59.773Z,4.47
2023-02-22T11:20:34.352Z,4.70
2023-02-22T11:23:03.716Z,4.90
2023-02-22T11:25:37.501Z,4.63
2023-02-22T11:28:30.791Z,4.97
2023-02-22T11:31:10.578Z,4.45
2023-02-22T11:33:38.704Z,4.55
2023-02-22T11:36:09.239Z,5.13
2023-02-22T11:38:39.385Z,5.10
2023-02-22T11:41:06.228Z,5.22
2023-02-22T11:43:33.070Z,4.65
2023-02-22T11:46:20.437Z,6.10
2023-02-22T11:49:17.281Z,5.25
2023-02-22T11:52:06.490Z,5.30
2023-02-22T11:54:53.078Z,5.55
2023-02-22T11:58:01.393Z,5.47
2023-02-22T12:00:55.241Z,5.40
2023-02-22T12:03:58.480Z,5.50
2023-02-22T12:06:42.636Z,5.75
2023-02-22T12:09:36.726Z,5.38
2023-02-22T12:12:31.712Z,5.18
2023-02-22T12:15:18.261Z,5.15
2023-02-22T12:18:22.064Z,5.40
2023-02-22T12:21:00.177Z,5.18
2023-02-22T12:23:46.022Z,5.28
2023-02-22T12:26:41.681Z,4.75
2023-02-22T12:29:26.925Z,4.80
2023-02-22T12:32:28.833Z,5.72
2023-02-22T12:35:05.358Z,5.70
2023-02-22T12:37:56.724Z,5.28
2023-02-22T12:40:40.171Z,5.13
2023-02-22T12:43:30.089Z,4.97
2023-02-22T12:49:13.792Z,4.78
2023-02-22T12:52:15.924Z,4.65
2023-02-22T12:55:47.194Z,4.43
2023-02-22T12:58:45.340Z,4.95
2023-02-22T13:01:21.344Z,5.10
2023-02-22T13:03:49.135Z,4.97
2023-02-22T13:06:57.393Z,4.97
2023-02-22T13:09:45.024Z,4.78
2023-02-22T13:12:22.970Z,4.70
2023-02-22T13:15:53.755Z,4.78
2023-02-22T13:18:44.322Z,4.35
2023-02-22T13:21:17.834Z,3.90
2023-02-22T13:24:22.965Z,4.60
2023-02-22T13:27:01.944Z,4.25
2023-02-22T13:29:38.616Z,3.93
2023-02-22T13:32:33.621Z,4.47
2023-02-22T13:35:49.236Z,4.60
2023-02-22T13:38:51.741Z,5.45
2023-02-22T13:41:43.886Z,4.43
2023-02-22T13:45:05.217Z,4.70
2023-02-22T13:47:47.240Z,4.57
2023-02-22T13:50:50.181Z,4.25
2023-02-22T13:53:27.829Z,4.85
2023-02-22T13:55:59.041Z,4.38
2023-02-22T13:58:26.430Z,4.82
2023-02-22T14:00:57.429Z,4.95
2023-02-22T14:03:36.562Z,5.10
2023-02-22T14:06:06.886Z,4.43
2023-02-22T14:08:37.495Z,5.22
2023-02-22T14:11:14.538Z,5.07
2023-02-22T14:14:14.491Z,5.05
2023-02-22T14:16:41.441Z,5.13
2023-02-22T14:19:22.891Z,4.82
2023-02-22T14:22:02.249Z,5.03
2023-02-22T14:24:50.986Z,4.70
2023-02-22T14:27:18.056Z,5.47
2023-02-22T14:29:57.877Z,5.30
2023-02-22T14:32:35.175Z,5.22
2023-02-22T14:35:26.447Z,4.53
2023-02-22T14:37:59.068Z,5.20
2023-02-22T14:40:30.946Z,4.93
2023-02-22T14:43:06.135Z,5.30
2023-02-22T14:45:45.836Z,5.65
2023-02-22T14:48:40.417Z,5.10
2023-02-22T14:51:23.216Z,4.88
2023-02-22T14:54:26.876Z,5.20
2023-02-22T14:57:24.307Z,5.90
2023-02-22T15:00:19.696Z,4.95
2023-02-22T15:02:49.529Z,5.65
2023-02-22T15:05:22.179Z,5.47
2023-02-22T15:07:59.530Z,5.15
2023-02-22T15:10:42.599Z,5.20
2023-02-22T15:13:26.350Z,5.35
2023-02-22T15:16:07.820Z,5.68
2023-02-22T15:18:42.205Z,6.20
2023-02-22T15:21:20.689Z,5.88
2023-02-22T15:24:07.848Z,6.07
2023-02-22T15:26:42.442Z,6.68
2023-02-22T15:29:23.096Z,6.50
2023-02-22T15:31:51.598Z,6.38
2023-02-22T15:34:28.587Z,7.60
2023-02-22T15:37:06.522Z,6.80
2023-02-22T15:39:43.608Z,7.25
2023-02-22T15:42:20.913Z,6.75
2023-02-22T15:44:52.223Z,7.00
2023-02-22T15:47:28.008Z,7.18
2023-02-22T15:50:34.516Z,7.03
2023-02-22T15:53:08.495Z,6.70
2023-02-22T15:55:47.088Z,7.20
2023-02-22T15:58:25.246Z,6.93
2023-02-22T16:01:03.103Z,6.85
2023-02-22T16:03:45.718Z,7.63
2023-02-22T16:06:25.010Z,7.32
2023-02-22T16:08:55.541Z,8.02
2023-02-22T16:11:43.181Z,7.97
2023-02-22T16:14:34.143Z,7.45
2023-02-22T16:17:28.727Z,7.07
2023-02-22T16:19:59.929Z,7.43
2023-02-22T16:22:36.288Z,7.32
2023-02-22T16:25:18.188Z,6.82
2023-02-22T16:27:53.881Z,6.60
2023-02-22T16:30:33.725Z,5.97
2023-02-22T16:35:35.299Z,5.65
2023-02-22T16:38:06.220Z,6.43
2023-02-22T16:40:50.261Z,6.78
2023-02-22T16:43:29.314Z,5.93
2023-02-22T16:45:56.083Z,5.80
2023-02-22T16:48:30.033Z,6.15
2023-02-22T16:51:02.686Z,5.72
2023-02-22T16:53:32.869Z,6.28
2023-02-22T16:56:06.035Z,5.45
2023-02-22T16:58:36.956Z,6.80
2023-02-22T17:01:03.933Z,6.40
2023-02-22T17:03:30.759Z,6.88
2023-02-22T17:05:57.685Z,6.93
2023-02-22T17:08:24.573Z,6.20
2023-02-22T17:10:56.605Z,6.68
2023-02-22T17:13:27.242Z,6.60
2023-02-22T17:15:55.521Z,6.07
2023-02-22T17:18:25.929Z,5.70
2023-02-22T17:20:54.284Z,6.07
2023-02-22T17:23:22.888Z,5.97
2023-02-22T17:26:02.206Z,6.43
2023-02-22T17:28:29.381Z,6.07
2023-02-22T17:31:02.247Z,6.72
2023-02-22T17:33:33.112Z,7.13
2023-02-22T17:36:02.057Z,6.72
2023-02-22T17:38:30.247Z,6.90
2023-02-22T17:40:59.603Z,6.78
2023-02-22T17:43:30.116Z,6.93
2023-02-22T17:45:57.465Z,6.68
2023-02-22T17:48:24.866Z,7.55
2023-02-22T17:50:52.750Z,8.35
2023-02-22T17:53:24.444Z,7.88
2023-02-22T17:55:51.342Z,6.70
2023-02-22T17:58:18.346Z,6.63
2023-02-22T18:00:48.950Z,6.90
2023-02-22T18:03:25.320Z,7.05
2023-02-22T18:05:57.363Z,8.07
2023-02-22T18:08:27.036Z,9.40
2023-02-22T18:10:57.606Z,7.85
2023-02-22T18:13:27.039Z,6.72
2023-02-22T18:15:59.696Z,6.55
2023-02-22T18:18:27.001Z,6.80
2023-02-22T18:20:59.720Z,7.03
2023-02-22T18:23:30.803Z,7.03
2023-02-22T18:26:10.692Z,6.97
2023-02-22T18:28:39.448Z,7.15
2023-02-22T18:31:09.687Z,7.35
2023-02-22T18:33:36.843Z,7.75
2023-02-22T18:36:04.541Z,8.45
2023-02-22T18:38:31.603Z,17.45
2023-02-22T18:41:04.407Z,16.63
2023-02-22T18:43:34.010Z,12.73
2023-02-22T18:46:15.940Z,10.38
2023-02-22T18:48:43.170Z,8.95
2023-02-22T18:51:12.966Z,7.93
2023-02-22T18:53:46.630Z,8.23
2023-02-22T18:56:22.551Z,8.10
2023-02-22T18:58:54.321Z,8.25
2023-02-22T19:01:21.892Z,8.40
2023-02-22T19:03:48.799Z,8.15
2023-02-22T19:06:17.047Z,8.30
2023-02-22T19:08:46.102Z,7.97
2023-02-22T19:11:20.138Z,7.22
2023-02-22T19:13:50.227Z,8.38
2023-02-22T19:16:21.459Z,7.18
2023-02-22T19:18:52.232Z,7.47
2023-02-22T19:21:20.712Z,7.63
2023-02-22T19:23:48.663Z,7.93
2023-02-22T19:26:23.856Z,7.03
2023-02-22T19:28:53.492Z,7.55
2023-02-22T19:31:31.040Z,8.00
2023-02-22T19:34:11.033Z,7.97
2023-02-22T19:36:47.264Z,7.43
2023-02-22T19:39:19.132Z,6.93
2023-02-22T19:41:46.914Z,7.70
2023-02-22T19:44:13.965Z,7.25
2023-02-22T19:46:40.832Z,8.55
2023-02-22T19:49:07.927Z,7.60
2023-02-22T19:51:34.885Z,8.15
2023-02-22T19:54:07.330Z,9.27
2023-02-22T19:56:35.343Z,8.65
2023-02-22T19:59:09.364Z,10.02
2023-02-22T20:01:37.310Z,9.48
2023-02-22T20:04:08.324Z,9.25
2023-02-22T20:06:42.058Z,9.60
2023-02-22T20:09:13.256Z,8.02
2023-02-22T20:11:40.306Z,6.63
2023-02-22T20:14:07.092Z,6.13
2023-02-22T20:16:35.395Z,6.40
2023-02-22T20:19:02.308Z,5.85
2023-02-22T20:21:34.582Z,5.90
2023-02-22T20:24:05.164Z,8.13
2023-02-22T20:26:35.096Z,8.07
2023-02-22T20:29:03.984Z,7.22
2023-02-22T20:31:32.446Z,8.75
2023-02-22T20:34:00.945Z,8.93
2023-02-22T20:36:29.780Z,9.02
2023-02-22T20:39:00.289Z,8.65
2023-02-22T20:41:33.220Z,9.32
2023-02-22T20:44:02.257Z,10.27
2023-02-22T20:46:36.070Z,11.73
2023-02-22T20:49:07.329Z,9.18
2023-02-22T20:51:36.748Z,9.43
2023-02-22T20:54:03.810Z,8.70
2023-02-22T20:56:32.281Z,12.98
2023-02-22T20:59:02.184Z,12.93
2023-02-22T21:04:01.941Z,9.55
2023-02-22T21:06:30.756Z,9.27
2023-02-22T21:09:00.141Z,9.55
2023-02-22T21:11:30.307Z,9.18
2023-02-22T21:13:57.709Z,9.23
2023-02-22T21:16:35.267Z,9.80
2023-02-22T21:19:05.645Z,9.60
2023-02-22T21:21:32.628Z,9.88
2023-02-22T21:24:03.216Z,8.98
2023-02-22T21:26:34.042Z,9.27
2023-02-22T21:29:05.003Z,9.60
2023-02-22T21:31:33.983Z,8.60
2023-02-22T21:34:01.989Z,9.38
2023-02-22T21:36:29.311Z,9.02
2023-02-22T21:38:59.819Z,8.38
2023-02-22T21:41:29.964Z,7.88
2023-02-22T21:43:58.765Z,8.77
2023-02-22T21:46:27.565Z,9.82
2023-02-22T21:48:58.588Z,9.52
2023-02-22T21:51:32.569Z,11.50
2023-02-22T21:54:04.288Z,10.70
2023-02-22T21:56:35.496Z,10.85
2023-02-22T21:59:11.519Z,9.93
2023-02-22T22:01:49.603Z,8.80
2023-02-22T22:04:23.236Z,7.80
2023-02-22T22:06:53.013Z,7.05
2023-02-22T22:09:22.936Z,6.85
2023-02-22T22:14:19.352Z,10.63
2023-02-22T22:16:48.606Z,16.00
2023-02-22T22:19:15.526Z,16.17
2023-02-22T22:21:42.687Z,17.38
2023-02-22T22:24:11.059Z,13.77
2023-02-22T22:26:38.528Z,11.38
2023-02-22T22:29:05.907Z,17.38
2023-02-22T22:31:33.078Z,16.13
2023-02-22T22:33:59.940Z,12.50
2023-02-22T22:36:27.344Z,9.77
2023-02-22T22:38:57.374Z,10.20
2023-02-22T22:41:27.867Z,10.05
2023-02-22T22:43:55.079Z,10.18
2023-02-22T22:46:22.132Z,8.88
2023-02-22T22:48:48.999Z,10.05
2023-02-22T22:51:20.043Z,11.10
2023-02-22T22:53:49.215Z,11.65
2023-02-22T22:56:26.133Z,11.85
2023-02-22T22:58:56.722Z,11.45
2023-02-22T23:01:33.858Z,10.15
2023-02-22T23:04:04.292Z,10.07
2023-02-22T23:06:43.558Z,9.63
2023-02-22T23:09:21.653Z,8.98
2023-02-22T23:11:53.284Z,9.45
2023-02-22T23:14:24.387Z,8.73
2023-02-22T23:16:59.813Z,9.55
2023-02-22T23:19:27.696Z,9.70
2023-02-22T23:21:55.896Z,10.10
2023-02-22T23:24:26.757Z,9.98
2023-02-22T23:26:59.413Z,9.70
2023-02-22T23:29:26.705Z,9.27
2023-02-22T23:31:54.450Z,7.88
2023-02-22T23:34:23.141Z,8.15
2023-02-22T23:36:54.094Z,7.18
2023-02-22T23:39:23.176Z,7.13
2023-02-22T23:41:59.783Z,7.80
2023-02-22T23:44:28.091Z,8.07
2023-02-22T23:46:55.562Z,8.32
2023-02-22T23:49:26.290Z,15.20
2023-02-22T23:51:54.617Z,11.68
2023-02-22T23:54:24.226Z,10.95
2023-02-22T23:56:57.699Z,10.00
2023-02-22T23:59:26.632Z,10.93
